sensor_id;sensor_type;location;lat;lon;timestamp;P1;durP1;ratioP1;P2;durP2;ratioP2
65328;SDS011;51941;52.210;5.158;2022-07-12T00:01:24;2.15;;;1.95;;
65328;SDS011;51941;52.210;5.158;2022-07-12T00:03:51;4.47;;;2.20;;
65328;SDS011;51941;52.210;5.158;2022-07-12T00:06:17;4.38;;;1.98;;
65328;SDS011;51941;52.210;5.158;2022-07-12T00:08:44;2.17;;;1.75;;
65328;SDS011;51941;52.210;5.158;2022-07-12T00:11:11;2.40;;;2.10;;
65328;SDS011;51941;52.210;5.158;2022-07-12T00:13:38;3.15;;;1.73;;
65328;SDS011;51941;52.210;5.158;2022-07-12T00:16:05;2.28;;;1.90;;
65328;SDS011;51941;52.210;5.158;2022-07-12T00:18:34;2.00;;;1.83;;
65328;SDS011;51941;52.210;5.158;2022-07-12T00:21:00;2.65;;;1.80;;
65328;SDS011;51941;52.210;5.158;2022-07-12T00:23:27;2.47;;;1.75;;
65328;SDS011;51941;52.210;5.158;2022-07-12T00:25:54;2.20;;;1.83;;
65328;SDS011;51941;52.210;5.158;2022-07-12T00:28:21;2.45;;;1.88;;
65328;SDS011;51941;52.210;5.158;2022-07-12T00:30:48;2.70;;;2.13;;
65328;SDS011;51941;52.210;5.158;2022-07-12T00:33:14;1.85;;;1.73;;
65328;SDS011;51941;52.210;5.158;2022-07-12T00:35:43;1.60;;;1.50;;
65328;SDS011;51941;52.210;5.158;2022-07-12T00:38:09;1.50;;;1.40;;
65328;SDS011;51941;52.210;5.158;2022-07-12T00:40:36;2.10;;;1.75;;
65328;SDS011;51941;52.210;5.158;2022-07-12T00:43:03;2.50;;;1.90;;
65328;SDS011;51941;52.210;5.158;2022-07-12T00:45:30;2.47;;;2.00;;
65328;SDS011;51941;52.210;5.158;2022-07-12T00:47:57;2.05;;;1.70;;
65328;SDS011;51941;52.210;5.158;2022-07-12T00:50:24;2.65;;;1.88;;
65328;SDS011;51941;52.210;5.158;2022-07-12T00:52:53;2.00;;;1.70;;
65328;SDS011;51941;52.210;5.158;2022-07-12T00:55:21;1.80;;;1.70;;
65328;SDS011;51941;52.210;5.158;2022-07-12T00:57:49;2.80;;;1.58;;
65328;SDS011;51941;52.210;5.158;2022-07-12T01:00:16;2.58;;;1.80;;
65328;SDS011;51941;52.210;5.158;2022-07-12T01:02:45;1.73;;;1.60;;
65328;SDS011;51941;52.210;5.158;2022-07-12T01:05:12;1.92;;;1.73;;
65328;SDS011;51941;52.210;5.158;2022-07-12T01:07:39;1.60;;;1.50;;
65328;SDS011;51941;52.210;5.158;2022-07-12T01:10:08;2.08;;;1.70;;
65328;SDS011;51941;52.210;5.158;2022-07-12T01:12:35;2.28;;;1.83;;
65328;SDS011;51941;52.210;5.158;2022-07-12T01:15:03;3.13;;;1.83;;
65328;SDS011;51941;52.210;5.158;2022-07-12T01:17:31;3.03;;;1.90;;
65328;SDS011;51941;52.210;5.158;2022-07-12T01:19:58;3.15;;;2.08;;
65328;SDS011;51941;52.210;5.158;2022-07-12T01:22:27;3.28;;;2.00;;
65328;SDS011;51941;52.210;5.158;2022-07-12T01:24:58;3.25;;;2.00;;
65328;SDS011;51941;52.210;5.158;2022-07-12T01:29:52;3.78;;;2.03;;
65328;SDS011;51941;52.210;5.158;2022-07-12T01:32:19;1.98;;;1.80;;
65328;SDS011;51941;52.210;5.158;2022-07-12T01:34:55;2.40;;;1.73;;
65328;SDS011;51941;52.210;5.158;2022-07-12T01:37:23;1.73;;;1.50;;
65328;SDS011;51941;52.210;5.158;2022-07-12T01:39:51;1.85;;;1.58;;
65328;SDS011;51941;52.210;5.158;2022-07-12T01:42:21;3.72;;;1.33;;
65328;SDS011;51941;52.210;5.158;2022-07-12T01:44:49;1.80;;;1.70;;
65328;SDS011;51941;52.210;5.158;2022-07-12T01:47:16;2.65;;;1.88;;
65328;SDS011;51941;52.210;5.158;2022-07-12T01:49:43;2.80;;;2.00;;
65328;SDS011;51941;52.210;5.158;2022-07-12T01:52:11;5.93;;;2.70;;
65328;SDS011;51941;52.210;5.158;2022-07-12T01:54:38;2.75;;;2.53;;
65328;SDS011;51941;52.210;5.158;2022-07-12T01:57:05;2.75;;;2.20;;
65328;SDS011;51941;52.210;5.158;2022-07-12T01:59:34;2.53;;;2.10;;
65328;SDS011;51941;52.210;5.158;2022-07-12T02:02:01;1.85;;;1.60;;
65328;SDS011;51941;52.210;5.158;2022-07-12T02:04:29;2.33;;;2.13;;
65328;SDS011;51941;52.210;5.158;2022-07-12T02:06:56;1.85;;;1.75;;
65328;SDS011;51941;52.210;5.158;2022-07-12T02:09:23;3.67;;;3.10;;
65328;SDS011;51941;52.210;5.158;2022-07-12T02:11:49;2.65;;;2.42;;
65328;SDS011;51941;52.210;5.158;2022-07-12T02:14:16;3.63;;;2.45;;
65328;SDS011;51941;52.210;5.158;2022-07-12T02:16:45;2.47;;;2.28;;
65328;SDS011;51941;52.210;5.158;2022-07-12T02:19:12;5.10;;;3.25;;
65328;SDS011;51941;52.210;5.158;2022-07-12T02:21:40;3.55;;;2.30;;
65328;SDS011;51941;52.210;5.158;2022-07-12T02:24:07;4.32;;;2.70;;
65328;SDS011;51941;52.210;5.158;2022-07-12T02:26:34;3.55;;;2.33;;
65328;SDS011;51941;52.210;5.158;2022-07-12T02:29:02;2.70;;;2.17;;
65328;SDS011;51941;52.210;5.158;2022-07-12T02:31:29;3.38;;;3.00;;
65328;SDS011;51941;52.210;5.158;2022-07-12T02:33:58;2.42;;;2.22;;
65328;SDS011;51941;52.210;5.158;2022-07-12T02:36:25;2.47;;;2.22;;
65328;SDS011;51941;52.210;5.158;2022-07-12T02:38:52;2.25;;;2.05;;
65328;SDS011;51941;52.210;5.158;2022-07-12T02:41:19;2.55;;;2.30;;
65328;SDS011;51941;52.210;5.158;2022-07-12T02:43:45;2.25;;;2.05;;
65328;SDS011;51941;52.210;5.158;2022-07-12T02:46:12;2.17;;;1.98;;
65328;SDS011;51941;52.210;5.158;2022-07-12T02:48:40;2.03;;;1.83;;
65328;SDS011;51941;52.210;5.158;2022-07-12T02:51:08;3.95;;;2.20;;
65328;SDS011;51941;52.210;5.158;2022-07-12T02:53:36;3.72;;;2.65;;
65328;SDS011;51941;52.210;5.158;2022-07-12T02:56:03;2.95;;;2.05;;
65328;SDS011;51941;52.210;5.158;2022-07-12T02:58:31;6.03;;;2.97;;
65328;SDS011;51941;52.210;5.158;2022-07-12T03:00:58;6.20;;;2.92;;
65328;SDS011;51941;52.210;5.158;2022-07-12T03:03:24;5.93;;;3.85;;
65328;SDS011;51941;52.210;5.158;2022-07-12T03:05:51;3.55;;;3.25;;
65328;SDS011;51941;52.210;5.158;2022-07-12T03:08:19;4.80;;;3.53;;
65328;SDS011;51941;52.210;5.158;2022-07-12T03:10:46;3.92;;;3.38;;
65328;SDS011;51941;52.210;5.158;2022-07-12T03:13:13;2.80;;;2.50;;
65328;SDS011;51941;52.210;5.158;2022-07-12T03:15:41;3.63;;;2.92;;
65328;SDS011;51941;52.210;5.158;2022-07-12T03:18:07;3.28;;;2.30;;
65328;SDS011;51941;52.210;5.158;2022-07-12T03:20:34;3.58;;;2.20;;
65328;SDS011;51941;52.210;5.158;2022-07-12T03:23:01;2.45;;;2.25;;
65328;SDS011;51941;52.210;5.158;2022-07-12T03:25:29;4.10;;;2.40;;
65328;SDS011;51941;52.210;5.158;2022-07-12T03:27:56;2.33;;;2.00;;
65328;SDS011;51941;52.210;5.158;2022-07-12T03:30:24;1.73;;;1.63;;
65328;SDS011;51941;52.210;5.158;2022-07-12T03:32:52;2.35;;;1.90;;
65328;SDS011;51941;52.210;5.158;2022-07-12T03:35:19;6.55;;;2.33;;
65328;SDS011;51941;52.210;5.158;2022-07-12T03:37:46;3.47;;;1.95;;
65328;SDS011;51941;52.210;5.158;2022-07-12T03:40:14;2.63;;;2.10;;
65328;SDS011;51941;52.210;5.158;2022-07-12T03:42:44;4.53;;;2.00;;
65328;SDS011;51941;52.210;5.158;2022-07-12T03:45:11;2.30;;;2.10;;
65328;SDS011;51941;52.210;5.158;2022-07-12T03:47:39;2.45;;;2.17;;
65328;SDS011;51941;52.210;5.158;2022-07-12T03:50:07;3.20;;;2.70;;
65328;SDS011;51941;52.210;5.158;2022-07-12T03:52:37;2.88;;;2.55;;
65328;SDS011;51941;52.210;5.158;2022-07-12T03:55:04;2.95;;;2.60;;
65328;SDS011;51941;52.210;5.158;2022-07-12T03:57:31;3.47;;;2.53;;
65328;SDS011;51941;52.210;5.158;2022-07-12T04:00:00;3.92;;;3.22;;
65328;SDS011;51941;52.210;5.158;2022-07-12T04:02:29;4.03;;;3.63;;
65328;SDS011;51941;52.210;5.158;2022-07-12T04:04:56;3.75;;;3.30;;
65328;SDS011;51941;52.210;5.158;2022-07-12T04:07:23;3.60;;;3.30;;
65328;SDS011;51941;52.210;5.158;2022-07-12T04:09:50;3.83;;;3.40;;
65328;SDS011;51941;52.210;5.158;2022-07-12T04:12:16;3.33;;;3.03;;
65328;SDS011;51941;52.210;5.158;2022-07-12T04:14:43;3.95;;;3.00;;
65328;SDS011;51941;52.210;5.158;2022-07-12T04:17:11;3.10;;;2.75;;
65328;SDS011;51941;52.210;5.158;2022-07-12T04:19:38;3.30;;;2.38;;
65328;SDS011;51941;52.210;5.158;2022-07-12T04:22:05;3.63;;;2.85;;
65328;SDS011;51941;52.210;5.158;2022-07-12T04:24:32;3.42;;;2.55;;
65328;SDS011;51941;52.210;5.158;2022-07-12T04:26:59;4.18;;;2.47;;
65328;SDS011;51941;52.210;5.158;2022-07-12T04:29:26;5.78;;;3.35;;
65328;SDS011;51941;52.210;5.158;2022-07-12T04:31:52;3.20;;;2.90;;
65328;SDS011;51941;52.210;5.158;2022-07-12T04:34:21;3.45;;;3.15;;
65328;SDS011;51941;52.210;5.158;2022-07-12T04:36:48;4.05;;;3.25;;
65328;SDS011;51941;52.210;5.158;2022-07-12T04:39:14;5.13;;;3.60;;
65328;SDS011;51941;52.210;5.158;2022-07-12T04:41:42;4.13;;;3.25;;
65328;SDS011;51941;52.210;5.158;2022-07-12T04:44:09;4.03;;;3.40;;
65328;SDS011;51941;52.210;5.158;2022-07-12T04:46:35;4.75;;;3.40;;
65328;SDS011;51941;52.210;5.158;2022-07-12T04:49:02;4.80;;;3.80;;
65328;SDS011;51941;52.210;5.158;2022-07-12T04:51:32;4.80;;;3.97;;
65328;SDS011;51941;52.210;5.158;2022-07-12T04:54:00;4.32;;;3.83;;
65328;SDS011;51941;52.210;5.158;2022-07-12T04:56:26;4.80;;;4.10;;
65328;SDS011;51941;52.210;5.158;2022-07-12T04:58:53;3.92;;;3.45;;
65328;SDS011;51941;52.210;5.158;2022-07-12T05:01:20;4.25;;;3.85;;
65328;SDS011;51941;52.210;5.158;2022-07-12T05:03:47;5.03;;;3.50;;
65328;SDS011;51941;52.210;5.158;2022-07-12T05:06:14;4.45;;;4.05;;
65328;SDS011;51941;52.210;5.158;2022-07-12T05:08:42;5.82;;;3.92;;
65328;SDS011;51941;52.210;5.158;2022-07-12T05:11:09;7.28;;;4.32;;
65328;SDS011;51941;52.210;5.158;2022-07-12T05:13:36;6.85;;;3.85;;
65328;SDS011;51941;52.210;5.158;2022-07-12T05:16:03;4.38;;;3.42;;
65328;SDS011;51941;52.210;5.158;2022-07-12T05:18:31;3.72;;;3.42;;
65328;SDS011;51941;52.210;5.158;2022-07-12T05:20:58;5.97;;;4.13;;
65328;SDS011;51941;52.210;5.158;2022-07-12T05:23:25;4.03;;;3.38;;
65328;SDS011;51941;52.210;5.158;2022-07-12T05:25:53;4.32;;;3.45;;
65328;SDS011;51941;52.210;5.158;2022-07-12T05:28:20;3.83;;;3.53;;
65328;SDS011;51941;52.210;5.158;2022-07-12T05:30:47;5.78;;;3.70;;
65328;SDS011;51941;52.210;5.158;2022-07-12T05:33:14;4.30;;;3.55;;
65328;SDS011;51941;52.210;5.158;2022-07-12T05:35:40;4.38;;;3.80;;
65328;SDS011;51941;52.210;5.158;2022-07-12T05:38:07;3.78;;;3.30;;
65328;SDS011;51941;52.210;5.158;2022-07-12T05:40:34;5.25;;;3.70;;
65328;SDS011;51941;52.210;5.158;2022-07-12T05:43:02;4.00;;;3.58;;
65328;SDS011;51941;52.210;5.158;2022-07-12T05:45:29;4.75;;;3.40;;
65328;SDS011;51941;52.210;5.158;2022-07-12T05:47:56;4.00;;;3.70;;
65328;SDS011;51941;52.210;5.158;2022-07-12T05:50:23;6.22;;;4.18;;
65328;SDS011;51941;52.210;5.158;2022-07-12T05:52:50;3.80;;;3.35;;
65328;SDS011;51941;52.210;5.158;2022-07-12T05:55:34;7.68;;;5.10;;
65328;SDS011;51941;52.210;5.158;2022-07-12T05:58:00;6.25;;;4.60;;
65328;SDS011;51941;52.210;5.158;2022-07-12T06:00:29;7.43;;;4.30;;
65328;SDS011;51941;52.210;5.158;2022-07-12T06:02:57;4.40;;;4.05;;
65328;SDS011;51941;52.210;5.158;2022-07-12T06:05:24;4.53;;;3.70;;
65328;SDS011;51941;52.210;5.158;2022-07-12T06:07:51;5.90;;;4.15;;
65328;SDS011;51941;52.210;5.158;2022-07-12T06:10:17;3.30;;;3.10;;
65328;SDS011;51941;52.210;5.158;2022-07-12T06:12:44;5.65;;;3.85;;
65328;SDS011;51941;52.210;5.158;2022-07-12T06:15:13;4.40;;;3.85;;
65328;SDS011;51941;52.210;5.158;2022-07-12T06:17:41;6.47;;;4.90;;
65328;SDS011;51941;52.210;5.158;2022-07-12T06:20:08;3.55;;;3.25;;
65328;SDS011;51941;52.210;5.158;2022-07-12T06:22:36;7.87;;;3.57;;
65328;SDS011;51941;52.210;5.158;2022-07-12T06:25:07;5.22;;;4.25;;
65328;SDS011;51941;52.210;5.158;2022-07-12T06:27:34;3.95;;;3.60;;
65328;SDS011;51941;52.210;5.158;2022-07-12T06:30:02;7.45;;;3.72;;
65328;SDS011;51941;52.210;5.158;2022-07-12T06:32:30;3.88;;;3.42;;
65328;SDS011;51941;52.210;5.158;2022-07-12T06:34:57;6.93;;;3.90;;
65328;SDS011;51941;52.210;5.158;2022-07-12T06:37:24;11.40;;;4.45;;
65328;SDS011;51941;52.210;5.158;2022-07-12T06:39:51;4.60;;;3.58;;
65328;SDS011;51941;52.210;5.158;2022-07-12T06:42:18;8.00;;;5.22;;
65328;SDS011;51941;52.210;5.158;2022-07-12T06:44:52;3.63;;;3.33;;
65328;SDS011;51941;52.210;5.158;2022-07-12T06:47:19;5.22;;;3.55;;
65328;SDS011;51941;52.210;5.158;2022-07-12T06:49:47;4.30;;;3.85;;
65328;SDS011;51941;52.210;5.158;2022-07-12T06:52:14;5.35;;;3.75;;
65328;SDS011;51941;52.210;5.158;2022-07-12T06:54:41;4.30;;;3.90;;
65328;SDS011;51941;52.210;5.158;2022-07-12T06:57:08;4.05;;;3.65;;
65328;SDS011;51941;52.210;5.158;2022-07-12T06:59:35;5.45;;;4.25;;
65328;SDS011;51941;52.210;5.158;2022-07-12T07:02:02;6.40;;;4.00;;
65328;SDS011;51941;52.210;5.158;2022-07-12T07:04:29;4.10;;;3.72;;
65328;SDS011;51941;52.210;5.158;2022-07-12T07:06:57;4.63;;;4.10;;
65328;SDS011;51941;52.210;5.158;2022-07-12T07:09:24;5.45;;;4.70;;
65328;SDS011;51941;52.210;5.158;2022-07-12T07:11:54;5.45;;;4.82;;
65328;SDS011;51941;52.210;5.158;2022-07-12T07:14:20;4.30;;;3.85;;
65328;SDS011;51941;52.210;5.158;2022-07-12T07:16:47;4.07;;;3.67;;
65328;SDS011;51941;52.210;5.158;2022-07-12T07:19:14;3.72;;;3.40;;
65328;SDS011;51941;52.210;5.158;2022-07-12T07:21:41;5.75;;;3.00;;
65328;SDS011;51941;52.210;5.158;2022-07-12T07:24:09;5.53;;;3.30;;
65328;SDS011;51941;52.210;5.158;2022-07-12T07:26:36;4.60;;;4.07;;
65328;SDS011;51941;52.210;5.158;2022-07-12T07:29:03;5.03;;;3.38;;
65328;SDS011;51941;52.210;5.158;2022-07-12T07:31:47;5.18;;;3.72;;
65328;SDS011;51941;52.210;5.158;2022-07-12T07:34:13;4.55;;;2.90;;
65328;SDS011;51941;52.210;5.158;2022-07-12T07:36:40;3.80;;;3.50;;
65328;SDS011;51941;52.210;5.158;2022-07-12T07:39:09;3.30;;;2.92;;
65328;SDS011;51941;52.210;5.158;2022-07-12T07:41:37;4.85;;;3.58;;
65328;SDS011;51941;52.210;5.158;2022-07-12T07:44:04;5.57;;;3.30;;
65328;SDS011;51941;52.210;5.158;2022-07-12T07:46:30;9.57;;;3.10;;
65328;SDS011;51941;52.210;5.158;2022-07-12T07:48:57;4.50;;;3.10;;
65328;SDS011;51941;52.210;5.158;2022-07-12T07:51:24;2.90;;;2.70;;
65328;SDS011;51941;52.210;5.158;2022-07-12T07:53:51;4.80;;;2.53;;
65328;SDS011;51941;52.210;5.158;2022-07-12T07:56:19;5.50;;;3.35;;
65328;SDS011;51941;52.210;5.158;2022-07-12T07:58:46;5.77;;;3.57;;
65328;SDS011;51941;52.210;5.158;2022-07-12T08:01:13;3.90;;;2.95;;
65328;SDS011;51941;52.210;5.158;2022-07-12T08:03:40;6.57;;;2.95;;
65328;SDS011;51941;52.210;5.158;2022-07-12T08:06:06;5.55;;;3.45;;
65328;SDS011;51941;52.210;5.158;2022-07-12T08:08:33;4.30;;;3.13;;
65328;SDS011;51941;52.210;5.158;2022-07-12T08:11:00;9.77;;;3.15;;
65328;SDS011;51941;52.210;5.158;2022-07-12T08:13:28;3.20;;;2.90;;
65328;SDS011;51941;52.210;5.158;2022-07-12T08:15:55;13.93;;;4.50;;
65328;SDS011;51941;52.210;5.158;2022-07-12T08:18:22;5.22;;;4.00;;
65328;SDS011;51941;52.210;5.158;2022-07-12T08:20:49;5.53;;;2.75;;
65328;SDS011;51941;52.210;5.158;2022-07-12T08:23:17;4.32;;;2.97;;
65328;SDS011;51941;52.210;5.158;2022-07-12T08:25:43;4.72;;;3.40;;
65328;SDS011;51941;52.210;5.158;2022-07-12T08:28:10;5.13;;;3.72;;
65328;SDS011;51941;52.210;5.158;2022-07-12T08:30:38;4.82;;;3.33;;
65328;SDS011;51941;52.210;5.158;2022-07-12T08:33:05;7.13;;;3.22;;
65328;SDS011;51941;52.210;5.158;2022-07-12T08:35:32;4.57;;;3.13;;
65328;SDS011;51941;52.210;5.158;2022-07-12T08:37:59;3.20;;;2.90;;
65328;SDS011;51941;52.210;5.158;2022-07-12T08:40:26;5.30;;;3.30;;
65328;SDS011;51941;52.210;5.158;2022-07-12T08:42:54;3.75;;;2.83;;
65328;SDS011;51941;52.210;5.158;2022-07-12T08:45:25;3.90;;;2.67;;
65328;SDS011;51941;52.210;5.158;2022-07-12T08:47:53;3.03;;;2.70;;
65328;SDS011;51941;52.210;5.158;2022-07-12T08:50:21;4.45;;;3.33;;
65328;SDS011;51941;52.210;5.158;2022-07-12T08:55:21;3.20;;;2.58;;
65328;SDS011;51941;52.210;5.158;2022-07-12T08:57:50;3.80;;;2.55;;
65328;SDS011;51941;52.210;5.158;2022-07-12T09:00:18;3.30;;;2.30;;
65328;SDS011;51941;52.210;5.158;2022-07-12T09:02:46;5.03;;;2.33;;
65328;SDS011;51941;52.210;5.158;2022-07-12T09:05:16;4.15;;;3.60;;
65328;SDS011;51941;52.210;5.158;2022-07-12T09:07:44;5.35;;;3.67;;
65328;SDS011;51941;52.210;5.158;2022-07-12T09:10:11;3.25;;;2.70;;
65328;SDS011;51941;52.210;5.158;2022-07-12T09:12:39;3.47;;;2.33;;
65328;SDS011;51941;52.210;5.158;2022-07-12T09:15:14;4.93;;;2.90;;
65328;SDS011;51941;52.210;5.158;2022-07-12T09:17:46;6.43;;;3.20;;
65328;SDS011;51941;52.210;5.158;2022-07-12T09:20:23;7.40;;;2.97;;
65328;SDS011;51941;52.210;5.158;2022-07-12T09:22:51;4.75;;;3.03;;
65328;SDS011;51941;52.210;5.158;2022-07-12T09:25:21;3.33;;;3.03;;
65328;SDS011;51941;52.210;5.158;2022-07-12T09:27:50;5.00;;;3.08;;
65328;SDS011;51941;52.210;5.158;2022-07-12T09:30:18;4.10;;;3.33;;
65328;SDS011;51941;52.210;5.158;2022-07-12T09:32:49;4.00;;;3.33;;
65328;SDS011;51941;52.210;5.158;2022-07-12T09:35:36;6.22;;;4.32;;
65328;SDS011;51941;52.210;5.158;2022-07-12T09:38:21;4.75;;;2.83;;
65328;SDS011;51941;52.210;5.158;2022-07-12T09:40:48;2.60;;;2.35;;
65328;SDS011;51941;52.210;5.158;2022-07-12T09:43:16;2.58;;;2.22;;
65328;SDS011;51941;52.210;5.158;2022-07-12T09:45:43;5.22;;;2.40;;
65328;SDS011;51941;52.210;5.158;2022-07-12T09:50:41;3.15;;;1.90;;
65328;SDS011;51941;52.210;5.158;2022-07-12T09:53:14;5.72;;;1.98;;
65328;SDS011;51941;52.210;5.158;2022-07-12T09:55:48;4.05;;;1.83;;
65328;SDS011;51941;52.210;5.158;2022-07-12T09:58:21;2.85;;;2.00;;
65328;SDS011;51941;52.210;5.158;2022-07-12T10:00:50;9.98;;;3.25;;
65328;SDS011;51941;52.210;5.158;2022-07-12T10:03:20;3.77;;;3.03;;
65328;SDS011;51941;52.210;5.158;2022-07-12T10:05:50;3.55;;;2.35;;
65328;SDS011;51941;52.210;5.158;2022-07-12T10:08:19;3.10;;;2.80;;
65328;SDS011;51941;52.210;5.158;2022-07-12T10:10:47;5.25;;;2.55;;
65328;SDS011;51941;52.210;5.158;2022-07-12T10:13:15;2.85;;;2.50;;
65328;SDS011;51941;52.210;5.158;2022-07-12T10:15:43;3.05;;;2.58;;
65328;SDS011;51941;52.210;5.158;2022-07-12T10:18:15;2.05;;;1.95;;
65328;SDS011;51941;52.210;5.158;2022-07-12T10:20:44;4.30;;;2.38;;
65328;SDS011;51941;52.210;5.158;2022-07-12T10:26:23;5.25;;;2.45;;
65328;SDS011;51941;52.210;5.158;2022-07-12T10:28:55;5.03;;;3.38;;
65328;SDS011;51941;52.210;5.158;2022-07-12T10:31:29;3.58;;;2.50;;
65328;SDS011;51941;52.210;5.158;2022-07-12T10:34:09;4.88;;;2.40;;
65328;SDS011;51941;52.210;5.158;2022-07-12T10:39:43;2.42;;;2.22;;
65328;SDS011;51941;52.210;5.158;2022-07-12T10:42:40;3.28;;;2.60;;
65328;SDS011;51941;52.210;5.158;2022-07-12T10:45:11;3.58;;;2.58;;
65328;SDS011;51941;52.210;5.158;2022-07-12T10:47:52;2.55;;;2.35;;
65328;SDS011;51941;52.210;5.158;2022-07-12T10:50:20;3.92;;;2.03;;
65328;SDS011;51941;52.210;5.158;2022-07-12T10:53:20;9.32;;;3.10;;
65328;SDS011;51941;52.210;5.158;2022-07-12T10:58:35;2.72;;;2.28;;
65328;SDS011;51941;52.210;5.158;2022-07-12T11:01:04;4.75;;;2.90;;
65328;SDS011;51941;52.210;5.158;2022-07-12T11:03:32;3.50;;;3.20;;
65328;SDS011;51941;52.210;5.158;2022-07-12T11:06:03;5.20;;;3.95;;
65328;SDS011;51941;52.210;5.158;2022-07-12T11:08:31;4.35;;;3.00;;
65328;SDS011;51941;52.210;5.158;2022-07-12T11:11:00;7.22;;;3.60;;
65328;SDS011;51941;52.210;5.158;2022-07-12T11:13:28;5.82;;;4.00;;
65328;SDS011;51941;52.210;5.158;2022-07-12T11:15:55;4.53;;;3.30;;
65328;SDS011;51941;52.210;5.158;2022-07-12T11:18:29;3.00;;;2.72;;
65328;SDS011;51941;52.210;5.158;2022-07-12T11:20:56;4.03;;;2.90;;
65328;SDS011;51941;52.210;5.158;2022-07-12T11:23:24;3.35;;;2.75;;
65328;SDS011;51941;52.210;5.158;2022-07-12T11:25:52;3.63;;;3.30;;
65328;SDS011;51941;52.210;5.158;2022-07-12T11:28:21;6.95;;;2.97;;
65328;SDS011;51941;52.210;5.158;2022-07-12T11:30:52;4.68;;;3.63;;
65328;SDS011;51941;52.210;5.158;2022-07-12T11:33:21;3.72;;;2.53;;
65328;SDS011;51941;52.210;5.158;2022-07-12T11:35:51;2.97;;;2.53;;
65328;SDS011;51941;52.210;5.158;2022-07-12T11:38:23;5.68;;;2.40;;
65328;SDS011;51941;52.210;5.158;2022-07-12T11:40:53;7.93;;;3.03;;
65328;SDS011;51941;52.210;5.158;2022-07-12T11:43:21;2.30;;;2.10;;
65328;SDS011;51941;52.210;5.158;2022-07-12T11:45:48;3.35;;;3.05;;
65328;SDS011;51941;52.210;5.158;2022-07-12T11:48:16;3.25;;;2.95;;
65328;SDS011;51941;52.210;5.158;2022-07-12T11:50:43;2.17;;;1.83;;
65328;SDS011;51941;52.210;5.158;2022-07-12T11:53:14;2.33;;;2.13;;
65328;SDS011;51941;52.210;5.158;2022-07-12T11:55:43;4.32;;;2.10;;
65328;SDS011;51941;52.210;5.158;2022-07-12T11:58:11;3.95;;;2.90;;
65328;SDS011;51941;52.210;5.158;2022-07-12T12:00:39;3.08;;;2.40;;
65328;SDS011;51941;52.210;5.158;2022-07-12T12:03:06;3.45;;;2.00;;
65328;SDS011;51941;52.210;5.158;2022-07-12T12:05:35;3.88;;;2.22;;
65328;SDS011;51941;52.210;5.158;2022-07-12T12:08:03;5.00;;;2.33;;
65328;SDS011;51941;52.210;5.158;2022-07-12T12:10:30;5.97;;;3.25;;
65328;SDS011;51941;52.210;5.158;2022-07-12T12:12:57;3.25;;;2.20;;
65328;SDS011;51941;52.210;5.158;2022-07-12T12:15:25;4.30;;;3.88;;
65328;SDS011;51941;52.210;5.158;2022-07-12T12:17:55;2.33;;;2.00;;
65328;SDS011;51941;52.210;5.158;2022-07-12T12:22:52;3.78;;;2.47;;
65328;SDS011;51941;52.210;5.158;2022-07-12T12:25:20;3.22;;;2.50;;
65328;SDS011;51941;52.210;5.158;2022-07-12T12:27:48;3.40;;;2.50;;
65328;SDS011;51941;52.210;5.158;2022-07-12T12:30:17;5.47;;;3.80;;
65328;SDS011;51941;52.210;5.158;2022-07-12T12:32:45;2.93;;;2.73;;
65328;SDS011;51941;52.210;5.158;2022-07-12T12:35:13;5.47;;;2.23;;
65328;SDS011;51941;52.210;5.158;2022-07-12T12:37:40;2.07;;;1.83;;
65328;SDS011;51941;52.210;5.158;2022-07-12T12:40:10;2.58;;;1.52;;
65328;SDS011;51941;52.210;5.158;2022-07-12T12:42:37;3.42;;;2.15;;
65328;SDS011;51941;52.210;5.158;2022-07-12T12:45:04;4.53;;;2.70;;
65328;SDS011;51941;52.210;5.158;2022-07-12T12:50:39;2.90;;;2.60;;
65328;SDS011;51941;52.210;5.158;2022-07-12T12:53:07;5.18;;;3.45;;
65328;SDS011;51941;52.210;5.158;2022-07-12T12:55:37;4.25;;;2.30;;
65328;SDS011;51941;52.210;5.158;2022-07-12T12:58:06;2.85;;;1.88;;
65328;SDS011;51941;52.210;5.158;2022-07-12T13:00:34;2.58;;;1.60;;
65328;SDS011;51941;52.210;5.158;2022-07-12T13:03:03;3.35;;;2.30;;
65328;SDS011;51941;52.210;5.158;2022-07-12T13:05:30;5.80;;;2.80;;
65328;SDS011;51941;52.210;5.158;2022-07-12T13:07:57;3.97;;;2.38;;
65328;SDS011;51941;52.210;5.158;2022-07-12T13:10:24;4.30;;;2.35;;
65328;SDS011;51941;52.210;5.158;2022-07-12T13:12:53;2.83;;;2.58;;
65328;SDS011;51941;52.210;5.158;2022-07-12T13:15:20;5.18;;;3.97;;
65328;SDS011;51941;52.210;5.158;2022-07-12T13:17:47;5.13;;;4.63;;
65328;SDS011;51941;52.210;5.158;2022-07-12T13:20:14;6.30;;;4.78;;
65328;SDS011;51941;52.210;5.158;2022-07-12T13:22:41;3.78;;;3.47;;
65328;SDS011;51941;52.210;5.158;2022-07-12T13:25:09;3.28;;;2.70;;
65328;SDS011;51941;52.210;5.158;2022-07-12T13:27:38;3.90;;;3.53;;
65328;SDS011;51941;52.210;5.158;2022-07-12T13:30:08;3.03;;;2.72;;
65328;SDS011;51941;52.210;5.158;2022-07-12T13:32:38;6.28;;;2.75;;
65328;SDS011;51941;52.210;5.158;2022-07-12T13:35:06;4.50;;;3.58;;
65328;SDS011;51941;52.210;5.158;2022-07-12T13:37:34;2.95;;;2.17;;
65328;SDS011;51941;52.210;5.158;2022-07-12T13:40:02;4.60;;;2.60;;
65328;SDS011;51941;52.210;5.158;2022-07-12T13:42:42;4.00;;;2.65;;
65328;SDS011;51941;52.210;5.158;2022-07-12T13:45:12;3.28;;;2.75;;
65328;SDS011;51941;52.210;5.158;2022-07-12T13:47:40;4.18;;;2.38;;
65328;SDS011;51941;52.210;5.158;2022-07-12T13:50:08;3.10;;;2.80;;
65328;SDS011;51941;52.210;5.158;2022-07-12T13:52:36;3.63;;;2.42;;
65328;SDS011;51941;52.210;5.158;2022-07-12T13:55:05;3.43;;;2.57;;
65328;SDS011;51941;52.210;5.158;2022-07-12T13:57:33;3.08;;;2.67;;
65328;SDS011;51941;52.210;5.158;2022-07-12T14:00:00;3.30;;;2.22;;
65328;SDS011;51941;52.210;5.158;2022-07-12T14:02:38;5.78;;;2.70;;
65328;SDS011;51941;52.210;5.158;2022-07-12T14:05:07;4.40;;;2.72;;
65328;SDS011;51941;52.210;5.158;2022-07-12T14:07:35;3.90;;;2.42;;
65328;SDS011;51941;52.210;5.158;2022-07-12T14:10:04;2.50;;;2.30;;
65328;SDS011;51941;52.210;5.158;2022-07-12T14:12:32;6.23;;;2.80;;
65328;SDS011;51941;52.210;5.158;2022-07-12T14:14:58;6.50;;;4.05;;
65328;SDS011;51941;52.210;5.158;2022-07-12T14:17:46;3.30;;;2.75;;
65328;SDS011;51941;52.210;5.158;2022-07-12T14:20:16;5.70;;;2.80;;
65328;SDS011;51941;52.210;5.158;2022-07-12T14:22:45;6.13;;;2.70;;
65328;SDS011;51941;52.210;5.158;2022-07-12T14:25:12;3.63;;;2.60;;
65328;SDS011;51941;52.210;5.158;2022-07-12T14:27:39;3.90;;;3.03;;
65328;SDS011;51941;52.210;5.158;2022-07-12T14:30:08;3.17;;;2.87;;
65328;SDS011;51941;52.210;5.158;2022-07-12T14:32:39;4.13;;;2.58;;
65328;SDS011;51941;52.210;5.158;2022-07-12T14:35:08;2.55;;;2.30;;
65328;SDS011;51941;52.210;5.158;2022-07-12T14:37:36;3.30;;;2.83;;
65328;SDS011;51941;52.210;5.158;2022-07-12T14:40:03;3.40;;;2.63;;
65328;SDS011;51941;52.210;5.158;2022-07-12T14:42:31;2.55;;;2.35;;
65328;SDS011;51941;52.210;5.158;2022-07-12T14:44:58;2.95;;;2.75;;
65328;SDS011;51941;52.210;5.158;2022-07-12T14:47:25;4.55;;;2.25;;
65328;SDS011;51941;52.210;5.158;2022-07-12T14:49:52;2.10;;;1.95;;
65328;SDS011;51941;52.210;5.158;2022-07-12T14:52:21;3.00;;;2.10;;
65328;SDS011;51941;52.210;5.158;2022-07-12T14:54:48;2.33;;;2.10;;
65328;SDS011;51941;52.210;5.158;2022-07-12T14:57:15;2.67;;;2.33;;
65328;SDS011;51941;52.210;5.158;2022-07-12T14:59:43;4.60;;;2.20;;
65328;SDS011;51941;52.210;5.158;2022-07-12T15:02:10;2.72;;;2.00;;
65328;SDS011;51941;52.210;5.158;2022-07-12T15:04:37;6.38;;;2.30;;
65328;SDS011;51941;52.210;5.158;2022-07-12T15:07:04;3.25;;;1.98;;
65328;SDS011;51941;52.210;5.158;2022-07-12T15:09:32;2.20;;;2.00;;
65328;SDS011;51941;52.210;5.158;2022-07-12T15:12:00;4.20;;;2.10;;
65328;SDS011;51941;52.210;5.158;2022-07-12T15:14:26;1.95;;;1.75;;
65328;SDS011;51941;52.210;5.158;2022-07-12T15:16:53;2.55;;;1.90;;